sensor_id;sensor_type;location;lat;lon;timestamp;temperature;humidity
69747;DHT22;57018;50.278;19.134;2023-10-13T00:01:16;16.10;99.90
69747;DHT22;57018;50.278;19.134;2023-10-13T00:03:46;16.10;99.90
69747;DHT22;57018;50.278;19.134;2023-10-13T00:06:16;16.10;99.90
69747;DHT22;57018;50.278;19.134;2023-10-13T00:08:46;16.00;99.90
69747;DHT22;57018;50.278;19.134;2023-10-13T00:11:17;16.00;99.90
69747;DHT22;57018;50.278;19.134;2023-10-13T00:13:47;16.00;99.90
69747;DHT22;57018;50.278;19.134;2023-10-13T00:16:21;15.90;99.90
69747;DHT22;57018;50.278;19.134;2023-10-13T00:18:51;15.90;99.90
69747;DHT22;57018;50.278;19.134;2023-10-13T00:21:23;15.70;99.90
69747;DHT22;57018;50.278;19.134;2023-10-13T00:24:01;15.50;99.90
69747;DHT22;57018;50.278;19.134;2023-10-13T00:26:34;15.20;99.90
69747;DHT22;57018;50.278;19.134;2023-10-13T00:29:05;15.10;99.90
69747;DHT22;57018;50.278;19.134;2023-10-13T00:31:45;15.10;99.90
69747;DHT22;57018;50.278;19.134;2023-10-13T00:34:16;14.90;99.90
69747;DHT22;57018;50.278;19.134;2023-10-13T00:36:54;14.90;99.90
69747;DHT22;57018;50.278;19.134;2023-10-13T00:39:38;14.80;99.90
69747;DHT22;57018;50.278;19.134;2023-10-13T00:42:14;14.90;99.90
69747;DHT22;57018;50.278;19.134;2023-10-13T00:44:48;14.90;99.90
69747;DHT22;57018;50.278;19.134;2023-10-13T00:47:19;14.90;99.90
69747;DHT22;57018;50.278;19.134;2023-10-13T00:50:01;14.90;99.90
69747;DHT22;57018;50.278;19.134;2023-10-13T00:52:32;14.90;99.90
69747;DHT22;57018;50.278;19.134;2023-10-13T00:55:06;14.90;99.90
69747;DHT22;57018;50.278;19.134;2023-10-13T00:57:37;14.80;99.90
69747;DHT22;57018;50.278;19.134;2023-10-13T01:00:10;14.70;99.90
69747;DHT22;57018;50.278;19.134;2023-10-13T01:02:48;14.80;99.90
69747;DHT22;57018;50.278;19.134;2023-10-13T01:05:24;14.70;99.90
69747;DHT22;57018;50.278;19.134;2023-10-13T01:07:54;14.70;99.90
69747;DHT22;57018;50.278;19.134;2023-10-13T01:10:25;14.60;99.90
69747;DHT22;57018;50.278;19.134;2023-10-13T01:12:56;14.60;99.90
69747;DHT22;57018;50.278;19.134;2023-10-13T01:15:27;14.50;99.90
69747;DHT22;57018;50.278;19.134;2023-10-13T01:18:09;14.60;99.90
69747;DHT22;57018;50.278;19.134;2023-10-13T01:20:42;14.50;99.90
69747;DHT22;57018;50.278;19.134;2023-10-13T01:23:14;14.50;99.90
69747;DHT22;57018;50.278;19.134;2023-10-13T01:25:47;14.50;99.90
69747;DHT22;57018;50.278;19.134;2023-10-13T01:28:17;14.30;99.90
69747;DHT22;57018;50.278;19.134;2023-10-13T01:30:47;14.30;99.90
69747;DHT22;57018;50.278;19.134;2023-10-13T01:33:19;14.20;99.90
69747;DHT22;57018;50.278;19.134;2023-10-13T01:35:56;14.20;99.90
69747;DHT22;57018;50.278;19.134;2023-10-13T01:38:27;14.10;99.90
69747;DHT22;57018;50.278;19.134;2023-10-13T01:40:59;14.00;99.90
69747;DHT22;57018;50.278;19.134;2023-10-13T01:43:33;14.00;99.90
69747;DHT22;57018;50.278;19.134;2023-10-13T01:46:03;13.90;99.90
69747;DHT22;57018;50.278;19.134;2023-10-13T01:48:33;13.90;99.90
69747;DHT22;57018;50.278;19.134;2023-10-13T01:51:07;13.90;99.90
69747;DHT22;57018;50.278;19.134;2023-10-13T01:53:39;14.00;99.90
69747;DHT22;57018;50.278;19.134;2023-10-13T01:56:10;14.00;99.90
69747;DHT22;57018;50.278;19.134;2023-10-13T01:58:41;14.00;99.90
69747;DHT22;57018;50.278;19.134;2023-10-13T02:01:11;14.00;99.90
69747;DHT22;57018;50.278;19.134;2023-10-13T02:03:42;14.10;99.90
69747;DHT22;57018;50.278;19.134;2023-10-13T02:06:16;14.20;99.90
69747;DHT22;57018;50.278;19.134;2023-10-13T02:08:52;14.20;99.90
69747;DHT22;57018;50.278;19.134;2023-10-13T02:11:25;14.20;99.90
69747;DHT22;57018;50.278;19.134;2023-10-13T02:13:55;14.20;99.90
69747;DHT22;57018;50.278;19.134;2023-10-13T02:16:26;14.30;99.90
69747;DHT22;57018;50.278;19.134;2023-10-13T02:18:56;14.20;99.90
69747;DHT22;57018;50.278;19.134;2023-10-13T02:21:26;14.30;99.90
69747;DHT22;57018;50.278;19.134;2023-10-13T02:24:00;14.30;99.90
69747;DHT22;57018;50.278;19.134;2023-10-13T02:26:32;14.20;99.90
69747;DHT22;57018;50.278;19.134;2023-10-13T02:29:07;14.00;99.90
69747;DHT22;57018;50.278;19.134;2023-10-13T02:31:38;14.00;99.90
69747;DHT22;57018;50.278;19.134;2023-10-13T02:34:08;13.90;99.90
69747;DHT22;57018;50.278;19.134;2023-10-13T02:36:40;13.80;99.90
69747;DHT22;57018;50.278;19.134;2023-10-13T02:39:17;13.70;99.90
69747;DHT22;57018;50.278;19.134;2023-10-13T02:41:56;13.70;99.90
69747;DHT22;57018;50.278;19.134;2023-10-13T02:44:26;13.50;99.90
69747;DHT22;57018;50.278;19.134;2023-10-13T02:46:59;13.30;99.90
69747;DHT22;57018;50.278;19.134;2023-10-13T02:49:30;13.40;99.90
69747;DHT22;57018;50.278;19.134;2023-10-13T02:52:02;13.30;99.90
69747;DHT22;57018;50.278;19.134;2023-10-13T02:54:36;13.20;99.90
69747;DHT22;57018;50.278;19.134;2023-10-13T02:57:08;13.20;99.90
69747;DHT22;57018;50.278;19.134;2023-10-13T02:59:39;13.10;99.90
69747;DHT22;57018;50.278;19.134;2023-10-13T03:02:09;13.10;99.90
69747;DHT22;57018;50.278;19.134;2023-10-13T03:04:53;13.10;99.90
69747;DHT22;57018;50.278;19.134;2023-10-13T03:07:27;13.00;99.90
69747;DHT22;57018;50.278;19.134;2023-10-13T03:09:58;13.10;99.90
69747;DHT22;57018;50.278;19.134;2023-10-13T03:12:38;13.00;99.90
69747;DHT22;57018;50.278;19.134;2023-10-13T03:15:09;13.00;99.90
69747;DHT22;57018;50.278;19.134;2023-10-13T03:17:45;13.20;99.90
69747;DHT22;57018;50.278;19.134;2023-10-13T03:20:17;13.20;99.90
69747;DHT22;57018;50.278;19.134;2023-10-13T03:22:53;13.20;99.90
69747;DHT22;57018;50.278;19.134;2023-10-13T03:25:23;13.30;99.90
69747;DHT22;57018;50.278;19.134;2023-10-13T03:27:58;13.40;99.90
69747;DHT22;57018;50.278;19.134;2023-10-13T03:30:33;13.60;99.90
69747;DHT22;57018;50.278;19.134;2023-10-13T03:33:08;13.70;99.90
69747;DHT22;57018;50.278;19.134;2023-10-13T03:35:43;13.60;99.90
69747;DHT22;57018;50.278;19.134;2023-10-13T03:38:22;13.80;99.90
69747;DHT22;57018;50.278;19.134;2023-10-13T03:40:56;13.80;99.90
69747;DHT22;57018;50.278;19.134;2023-10-13T03:43:36;13.80;99.90
69747;DHT22;57018;50.278;19.134;2023-10-13T03:46:18;13.90;99.90
69747;DHT22;57018;50.278;19.134;2023-10-13T03:48:50;13.90;99.90
69747;DHT22;57018;50.278;19.134;2023-10-13T03:51:29;13.90;99.90
69747;DHT22;57018;50.278;19.134;2023-10-13T03:54:00;13.80;99.90
69747;DHT22;57018;50.278;19.134;2023-10-13T03:56:36;13.90;99.90
69747;DHT22;57018;50.278;19.134;2023-10-13T03:59:09;13.80;99.90
69747;DHT22;57018;50.278;19.134;2023-10-13T04:01:47;13.90;99.90
69747;DHT22;57018;50.278;19.134;2023-10-13T04:04:27;13.90;99.90
69747;DHT22;57018;50.278;19.134;2023-10-13T04:07:07;13.90;99.90
69747;DHT22;57018;50.278;19.134;2023-10-13T04:10:04;13.90;99.90
69747;DHT22;57018;50.278;19.134;2023-10-13T04:12:59;13.90;99.90
69747;DHT22;57018;50.278;19.134;2023-10-13T04:15:47;14.00;99.90
69747;DHT22;57018;50.278;19.134;2023-10-13T04:18:31;14.00;99.90
69747;DHT22;57018;50.278;19.134;2023-10-13T04:21:15;14.10;99.90
69747;DHT22;57018;50.278;19.134;2023-10-13T04:24:10;14.10;99.90
69747;DHT22;57018;50.278;19.134;2023-10-13T04:27:09;14.10;99.90
69747;DHT22;57018;50.278;19.134;2023-10-13T04:29:59;14.10;99.90
69747;DHT22;57018;50.278;19.134;2023-10-13T04:32:46;14.10;99.90
69747;DHT22;57018;50.278;19.134;2023-10-13T04:35:34;14.10;99.90
69747;DHT22;57018;50.278;19.134;2023-10-13T04:38:16;14.10;99.90
69747;DHT22;57018;50.278;19.134;2023-10-13T04:40:49;14.10;99.90
69747;DHT22;57018;50.278;19.134;2023-10-13T04:43:38;14.10;99.90
69747;DHT22;57018;50.278;19.134;2023-10-13T04:46:22;14.10;99.90
69747;DHT22;57018;50.278;19.134;2023-10-13T04:49:08;14.10;99.90
69747;DHT22;57018;50.278;19.134;2023-10-13T04:51:56;14.30;99.90
69747;DHT22;57018;50.278;19.134;2023-10-13T04:54:30;14.30;99.90
69747;DHT22;57018;50.278;19.134;2023-10-13T04:57:14;14.50;99.90
69747;DHT22;57018;50.278;19.134;2023-10-13T05:00:01;14.50;99.90
69747;DHT22;57018;50.278;19.134;2023-10-13T05:02:54;14.50;99.90
69747;DHT22;57018;50.278;19.134;2023-10-13T05:05:45;14.70;99.90
69747;DHT22;57018;50.278;19.134;2023-10-13T05:08:36;14.70;99.90
69747;DHT22;57018;50.278;19.134;2023-10-13T05:11:23;14.80;99.90
69747;DHT22;57018;50.278;19.134;2023-10-13T05:14:11;14.80;99.90
69747;DHT22;57018;50.278;19.134;2023-10-13T05:16:58;14.90;99.90
69747;DHT22;57018;50.278;19.134;2023-10-13T05:19:45;14.90;99.90
69747;DHT22;57018;50.278;19.134;2023-10-13T05:22:33;15.00;99.90
69747;DHT22;57018;50.278;19.134;2023-10-13T05:25:20;15.00;99.90
69747;DHT22;57018;50.278;19.134;2023-10-13T05:28:08;15.10;99.90
69747;DHT22;57018;50.278;19.134;2023-10-13T05:30:55;15.10;99.90
69747;DHT22;57018;50.278;19.134;2023-10-13T05:33:45;15.10;99.90
69747;DHT22;57018;50.278;19.134;2023-10-13T05:36:33;15.20;99.90
69747;DHT22;57018;50.278;19.134;2023-10-13T05:39:21;15.20;99.90
69747;DHT22;57018;50.278;19.134;2023-10-13T05:42:08;15.30;99.90
69747;DHT22;57018;50.278;19.134;2023-10-13T05:44:55;15.30;99.90
69747;DHT22;57018;50.278;19.134;2023-10-13T05:47:45;15.40;99.90
69747;DHT22;57018;50.278;19.134;2023-10-13T05:50:29;15.30;99.90
69747;DHT22;57018;50.278;19.134;2023-10-13T05:53:18;15.40;99.90
69747;DHT22;57018;50.278;19.134;2023-10-13T05:56:06;15.40;99.90
69747;DHT22;57018;50.278;19.134;2023-10-13T05:58:53;15.40;99.90
69747;DHT22;57018;50.278;19.134;2023-10-13T06:01:41;15.40;99.90
69747;DHT22;57018;50.278;19.134;2023-10-13T06:04:28;15.40;99.90
69747;DHT22;57018;50.278;19.134;2023-10-13T06:07:16;15.40;99.90
69747;DHT22;57018;50.278;19.134;2023-10-13T06:10:04;15.60;99.90
69747;DHT22;57018;50.278;19.134;2023-10-13T06:12:51;15.60;99.90
69747;DHT22;57018;50.278;19.134;2023-10-13T06:15:39;15.50;99.90
69747;DHT22;57018;50.278;19.134;2023-10-13T06:18:27;15.70;99.90
69747;DHT22;57018;50.278;19.134;2023-10-13T06:21:14;15.80;99.90
69747;DHT22;57018;50.278;19.134;2023-10-13T06:24:02;15.80;99.90
69747;DHT22;57018;50.278;19.134;2023-10-13T06:26:50;15.90;99.90
69747;DHT22;57018;50.278;19.134;2023-10-13T06:29:37;16.00;99.90
69747;DHT22;57018;50.278;19.134;2023-10-13T06:32:07;16.10;99.90
69747;DHT22;57018;50.278;19.134;2023-10-13T06:34:40;16.10;99.90
69747;DHT22;57018;50.278;19.134;2023-10-13T06:37:13;16.30;99.90
69747;DHT22;57018;50.278;19.134;2023-10-13T06:39:53;16.40;99.90
69747;DHT22;57018;50.278;19.134;2023-10-13T06:42:25;16.40;99.90
69747;DHT22;57018;50.278;19.134;2023-10-13T06:44:55;16.60;99.90
69747;DHT22;57018;50.278;19.134;2023-10-13T06:47:26;16.60;99.90
69747;DHT22;57018;50.278;19.134;2023-10-13T06:49:56;16.60;99.90
69747;DHT22;57018;50.278;19.134;2023-10-13T06:52:28;16.50;99.90
69747;DHT22;57018;50.278;19.134;2023-10-13T06:54:58;16.50;99.90
69747;DHT22;57018;50.278;19.134;2023-10-13T06:57:33;16.40;99.90
69747;DHT22;57018;50.278;19.134;2023-10-13T07:00:13;16.40;99.90
69747;DHT22;57018;50.278;19.134;2023-10-13T07:02:55;16.30;99.90
69747;DHT22;57018;50.278;19.134;2023-10-13T07:05:37;16.20;99.90
69747;DHT22;57018;50.278;19.134;2023-10-13T07:08:08;16.20;99.90
69747;DHT22;57018;50.278;19.134;2023-10-13T07:10:38;16.20;99.90
69747;DHT22;57018;50.278;19.134;2023-10-13T07:13:17;16.20;99.90
69747;DHT22;57018;50.278;19.134;2023-10-13T07:15:48;16.40;99.90
69747;DHT22;57018;50.278;19.134;2023-10-13T07:18:17;16.50;99.90
69747;DHT22;57018;50.278;19.134;2023-10-13T07:20:51;16.70;99.90
69747;DHT22;57018;50.278;19.134;2023-10-13T07:23:26;16.90;99.90
69747;DHT22;57018;50.278;19.134;2023-10-13T07:25:58;17.10;99.90
69747;DHT22;57018;50.278;19.134;2023-10-13T07:28:31;17.20;99.90
69747;DHT22;57018;50.278;19.134;2023-10-13T07:31:04;17.30;99.90
69747;DHT22;57018;50.278;19.134;2023-10-13T07:33:41;17.50;99.90
69747;DHT22;57018;50.278;19.134;2023-10-13T07:36:11;17.80;99.90
69747;DHT22;57018;50.278;19.134;2023-10-13T07:38:47;18.00;99.90
69747;DHT22;57018;50.278;19.134;2023-10-13T07:41:28;18.20;99.90
69747;DHT22;57018;50.278;19.134;2023-10-13T07:44:00;18.50;99.90
69747;DHT22;57018;50.278;19.134;2023-10-13T07:46:33;18.80;99.90
69747;DHT22;57018;50.278;19.134;2023-10-13T07:49:03;18.90;99.90
69747;DHT22;57018;50.278;19.134;2023-10-13T07:51:40;19.00;99.90
69747;DHT22;57018;50.278;19.134;2023-10-13T07:54:14;19.20;99.90
69747;DHT22;57018;50.278;19.134;2023-10-13T07:56:50;19.40;99.90
69747;DHT22;57018;50.278;19.134;2023-10-13T07:59:20;19.70;99.90
69747;DHT22;57018;50.278;19.134;2023-10-13T08:01:51;19.90;99.90
69747;DHT22;57018;50.278;19.134;2023-10-13T08:04:34;20.00;99.90
69747;DHT22;57018;50.278;19.134;2023-10-13T08:07:05;20.20;99.90
69747;DHT22;57018;50.278;19.134;2023-10-13T08:09:42;20.40;99.90
69747;DHT22;57018;50.278;19.134;2023-10-13T08:12:20;20.60;99.90
69747;DHT22;57018;50.278;19.134;2023-10-13T08:14:51;20.80;99.90
69747;DHT22;57018;50.278;19.134;2023-10-13T08:17:40;20.80;99.90
69747;DHT22;57018;50.278;19.134;2023-10-13T08:20:13;21.00;99.90
69747;DHT22;57018;50.278;19.134;2023-10-13T08:22:45;21.10;99.90
69747;DHT22;57018;50.278;19.134;2023-10-13T08:25:17;21.20;99.90
69747;DHT22;57018;50.278;19.134;2023-10-13T08:27:53;21.20;99.90
69747;DHT22;57018;50.278;19.134;2023-10-13T08:30:37;21.30;99.90
69747;DHT22;57018;50.278;19.134;2023-10-13T08:33:22;21.30;99.90
69747;DHT22;57018;50.278;19.134;2023-10-13T08:35:56;21.30;99.90
69747;DHT22;57018;50.278;19.134;2023-10-13T08:38:46;21.40;99.90
69747;DHT22;57018;50.278;19.134;2023-10-13T08:41:25;21.40;99.90
69747;DHT22;57018;50.278;19.134;2023-10-13T08:44:03;21.60;99.90
69747;DHT22;57018;50.278;19.134;2023-10-13T08:46:34;21.70;99.90
69747;DHT22;57018;50.278;19.134;2023-10-13T08:49:35;21.80;99.90
69747;DHT22;57018;50.278;19.134;2023-10-13T08:52:15;21.90;99.90
69747;DHT22;57018;50.278;19.134;2023-10-13T08:55:04;21.80;99.90
69747;DHT22;57018;50.278;19.134;2023-10-13T08:58:03;21.80;99.90
69747;DHT22;57018;50.278;19.134;2023-10-13T09:00:44;21.90;99.90
69747;DHT22;57018;50.278;19.134;2023-10-13T09:03:42;21.90;99.90
69747;DHT22;57018;50.278;19.134;2023-10-13T09:06:14;22.00;99.90
69747;DHT22;57018;50.278;19.134;2023-10-13T09:08:48;21.90;99.90
69747;DHT22;57018;50.278;19.134;2023-10-13T09:11:36;21.90;99.90
69747;DHT22;57018;50.278;19.134;2023-10-13T09:14:20;21.60;99.90
69747;DHT22;57018;50.278;19.134;2023-10-13T09:17:06;21.70;99.90
69747;DHT22;57018;50.278;19.134;2023-10-13T09:20:04;21.80;99.90
69747;DHT22;57018;50.278;19.134;2023-10-13T09:22:48;22.00;99.90
69747;DHT22;57018;50.278;19.134;2023-10-13T09:25:25;22.30;99.90
69747;DHT22;57018;50.278;19.134;2023-10-13T09:28:02;22.60;99.90
69747;DHT22;57018;50.278;19.134;2023-10-13T09:30:45;22.70;99.90
69747;DHT22;57018;50.278;19.134;2023-10-13T09:33:21;22.70;99.90
69747;DHT22;57018;50.278;19.134;2023-10-13T09:35:57;22.50;99.90
69747;DHT22;57018;50.278;19.134;2023-10-13T09:38:28;22.30;99.90
69747;DHT22;57018;50.278;19.134;2023-10-13T09:41:00;22.00;99.90
69747;DHT22;57018;50.278;19.134;2023-10-13T09:43:46;21.90;99.90
69747;DHT22;57018;50.278;19.134;2023-10-13T09:46:20;21.70;99.90
69747;DHT22;57018;50.278;19.134;2023-10-13T09:48:57;21.70;99.90
69747;DHT22;57018;50.278;19.134;2023-10-13T09:51:37;21.70;99.90
69747;DHT22;57018;50.278;19.134;2023-10-13T09:54:13;21.80;99.90
69747;DHT22;57018;50.278;19.134;2023-10-13T09:56:53;21.90;99.90
69747;DHT22;57018;50.278;19.134;2023-10-13T09:59:29;22.10;99.90
69747;DHT22;57018;50.278;19.134;2023-10-13T10:02:05;22.30;99.90
69747;DHT22;57018;50.278;19.134;2023-10-13T10:04:38;22.50;99.90
69747;DHT22;57018;50.278;19.134;2023-10-13T10:07:10;22.70;99.90
69747;DHT22;57018;50.278;19.134;2023-10-13T10:09:40;22.90;97.40
69747;DHT22;57018;50.278;19.134;2023-10-13T10:12:22;22.90;96.40
69747;DHT22;57018;50.278;19.134;2023-10-13T10:15:20;22.90;96.80
69747;DHT22;57018;50.278;19.134;2023-10-13T10:17:59;22.80;93.60
69747;DHT22;57018;50.278;19.134;2023-10-13T10:20:32;22.90;93.90
69747;DHT22;57018;50.278;19.134;2023-10-13T10:23:08;22.90;92.30
69747;DHT22;57018;50.278;19.134;2023-10-13T10:25:47;22.80;91.10
69747;DHT22;57018;50.278;19.134;2023-10-13T10:28:19;22.70;91.10
69747;DHT22;57018;50.278;19.134;2023-10-13T10:30:49;22.50;92.10
69747;DHT22;57018;50.278;19.134;2023-10-13T10:33:19;22.50;94.50
69747;DHT22;57018;50.278;19.134;2023-10-13T10:36:02;22.60;95.50
69747;DHT22;57018;50.278;19.134;2023-10-13T10:38:33;22.50;95.70
69747;DHT22;57018;50.278;19.134;2023-10-13T10:41:07;22.90;95.40
69747;DHT22;57018;50.278;19.134;2023-10-13T10:43:42;23.00;94.30
69747;DHT22;57018;50.278;19.134;2023-10-13T10:46:13;23.10;92.80
69747;DHT22;57018;50.278;19.134;2023-10-13T10:48:44;23.20;91.90
69747;DHT22;57018;50.278;19.134;2023-10-13T10:51:15;23.00;91.90
69747;DHT22;57018;50.278;19.134;2023-10-13T10:53:50;22.80;92.50
69747;DHT22;57018;50.278;19.134;2023-10-13T10:56:25;22.90;92.50
69747;DHT22;57018;50.278;19.134;2023-10-13T10:59:06;22.80;95.00
69747;DHT22;57018;50.278;19.134;2023-10-13T11:01:44;22.90;95.60
69747;DHT22;57018;50.278;19.134;2023-10-13T11:04:20;22.90;95.50
69747;DHT22;57018;50.278;19.134;2023-10-13T11:07:02;23.00;96.40
69747;DHT22;57018;50.278;19.134;2023-10-13T11:09:35;23.00;96.00
69747;DHT22;57018;50.278;19.134;2023-10-13T11:12:15;23.10;95.00
69747;DHT22;57018;50.278;19.134;2023-10-13T11:15:02;23.20;93.50
69747;DHT22;57018;50.278;19.134;2023-10-13T11:17:33;23.10;94.00
69747;DHT22;57018;50.278;19.134;2023-10-13T11:20:16;23.10;93.10
69747;DHT22;57018;50.278;19.134;2023-10-13T11:22:50;23.00;93.30
69747;DHT22;57018;50.278;19.134;2023-10-13T11:25:25;22.80;94.10
69747;DHT22;57018;50.278;19.134;2023-10-13T11:28:13;22.70;95.20
69747;DHT22;57018;50.278;19.134;2023-10-13T11:30:49;22.80;95.50
69747;DHT22;57018;50.278;19.134;2023-10-13T11:33:25;22.80;94.70
69747;DHT22;57018;50.278;19.134;2023-10-13T11:35:58;22.80;94.40
69747;DHT22;57018;50.278;19.134;2023-10-13T11:38:33;22.70;94.80
69747;DHT22;57018;50.278;19.134;2023-10-13T11:41:18;22.70;95.00
69747;DHT22;57018;50.278;19.134;2023-10-13T11:43:49;22.70;95.40
69747;DHT22;57018;50.278;19.134;2023-10-13T11:46:34;22.70;94.20
69747;DHT22;57018;50.278;19.134;2023-10-13T11:49:22;22.60;93.50
69747;DHT22;57018;50.278;19.134;2023-10-13T11:52:05;22.50;92.90
69747;DHT22;57018;50.278;19.134;2023-10-13T11:54:55;22.40;93.80
69747;DHT22;57018;50.278;19.134;2023-10-13T11:57:25;22.30;95.50
69747;DHT22;57018;50.278;19.134;2023-10-13T11:59:54;22.30;95.60
69747;DHT22;57018;50.278;19.134;2023-10-13T12:02:47;22.20;96.30
69747;DHT22;57018;50.278;19.134;2023-10-13T12:05:35;22.20;96.60
69747;DHT22;57018;50.278;19.134;2023-10-13T12:08:38;22.20;96.90
69747;DHT22;57018;50.278;19.134;2023-10-13T12:11:18;22.20;97.20
69747;DHT22;57018;50.278;19.134;2023-10-13T12:14:00;22.20;98.00
69747;DHT22;57018;50.278;19.134;2023-10-13T12:16:40;22.30;97.80
69747;DHT22;57018;50.278;19.134;2023-10-13T12:19:11;22.40;96.90
69747;DHT22;57018;50.278;19.134;2023-10-13T12:21:41;22.60;96.30
69747;DHT22;57018;50.278;19.134;2023-10-13T12:24:12;22.60;95.70
69747;DHT22;57018;50.278;19.134;2023-10-13T12:26:51;22.60;96.10
69747;DHT22;57018;50.278;19.134;2023-10-13T12:29:26;22.60;96.00
69747;DHT22;57018;50.278;19.134;2023-10-13T12:31:57;22.60;96.40
69747;DHT22;57018;50.278;19.134;2023-10-13T12:34:37;22.60;96.30
69747;DHT22;57018;50.278;19.134;2023-10-13T12:37:30;22.60;96.30
69747;DHT22;57018;50.278;19.134;2023-10-13T12:40:20;22.70;95.60
69747;DHT22;57018;50.278;19.134;2023-10-13T12:43:07;22.80;96.50
69747;DHT22;57018;50.278;19.134;2023-10-13T12:45:56;22.80;96.40
69747;DHT22;57018;50.278;19.134;2023-10-13T12:48:43;22.90;95.10
69747;DHT22;57018;50.278;19.134;2023-10-13T12:51:32;22.90;94.10
69747;DHT22;57018;50.278;19.134;2023-10-13T12:54:19;22.90;94.20
69747;DHT22;57018;50.278;19.134;2023-10-13T12:56:56;22.80;95.30
69747;DHT22;57018;50.278;19.134;2023-10-13T12:59:26;22.80;95.80
69747;DHT22;57018;50.278;19.134;2023-10-13T13:01:56;22.70;97.00
69747;DHT22;57018;50.278;19.134;2023-10-13T13:04:26;22.70;96.50
69747;DHT22;57018;50.278;19.134;2023-10-13T13:07:00;22.70;97.40
69747;DHT22;57018;50.278;19.134;2023-10-13T13:09:30;22.60;98.10
69747;DHT22;57018;50.278;19.134;2023-10-13T13:12:01;22.50;98.10
69747;DHT22;57018;50.278;19.134;2023-10-13T13:14:34;22.50;98.60
69747;DHT22;57018;50.278;19.134;2023-10-13T13:17:04;22.40;99.60
69747;DHT22;57018;50.278;19.134;2023-10-13T13:19:36;22.40;99.90
69747;DHT22;57018;50.278;19.134;2023-10-13T13:22:08;22.40;99.80
69747;DHT22;57018;50.278;19.134;2023-10-13T13:24:40;22.40;99.90
69747;DHT22;57018;50.278;19.134;2023-10-13T13:27:12;22.40;99.90
69747;DHT22;57018;50.278;19.134;2023-10-13T13:29:43;22.30;99.90
69747;DHT22;57018;50.278;19.134;2023-10-13T13:32:13;22.30;99.90
69747;DHT22;57018;50.278;19.134;2023-10-13T13:34:47;22.40;99.90
69747;DHT22;57018;50.278;19.134;2023-10-13T13:37:23;22.40;99.90
69747;DHT22;57018;50.278;19.134;2023-10-13T13:39:56;22.40;99.90
69747;DHT22;57018;50.278;19.134;2023-10-13T13:42:42;22.60;99.90
69747;DHT22;57018;50.278;19.134;2023-10-13T13:45:16;22.70;99.90
69747;DHT22;57018;50.278;19.134;2023-10-13T13:47:56;22.70;99.90
69747;DHT22;57018;50.278;19.134;2023-10-13T13:50:27;22.70;98.70
69747;DHT22;57018;50.278;19.134;2023-10-13T13:52:58;22.90;98.80
69747;DHT22;57018;50.278;19.134;2023-10-13T13:55:33;23.10;97.70
69747;DHT22;57018;50.278;19.134;2023-10-13T13:58:03;23.10;97.90
69747;DHT22;57018;50.278;19.134;2023-10-13T14:00:38;23.30;96.70
69747;DHT22;57018;50.278;19.134;2023-10-13T14:03:16;23.40;95.40
69747;DHT22;57018;50.278;19.134;2023-10-13T14:05:59;23.40;95.10
69747;DHT22;57018;50.278;19.134;2023-10-13T14:08:29;23.40;95.80
69747;DHT22;57018;50.278;19.134;2023-10-13T14:10:59;23.30;96.20
69747;DHT22;57018;50.278;19.134;2023-10-13T14:14:12;23.10;95.70
69747;DHT22;57018;50.278;19.134;2023-10-13T14:16:57;23.00;97.80
69747;DHT22;57018;50.278;19.134;2023-10-13T14:19:35;22.90;98.20
69747;DHT22;57018;50.278;19.134;2023-10-13T14:22:09;22.70;99.00
69747;DHT22;57018;50.278;19.134;2023-10-13T14:24:40;22.70;99.90
69747;DHT22;57018;50.278;19.134;2023-10-13T14:27:16;22.60;99.90
69747;DHT22;57018;50.278;19.134;2023-10-13T14:29:49;22.60;99.90
69747;DHT22;57018;50.278;19.134;2023-10-13T14:32:21;22.60;99.90
69747;DHT22;57018;50.278;19.134;2023-10-13T14:34:56;22.60;99.90
69747;DHT22;57018;50.278;19.134;2023-10-13T14:37:26;22.70;99.90
69747;DHT22;57018;50.278;19.134;2023-10-13T14:39:58;22.60;99.90
69747;DHT22;57018;50.278;19.134;2023-10-13T14:42:29;22.60;99.90
69747;DHT22;57018;50.278;19.134;2023-10-13T14:45:05;22.70;99.90
69747;DHT22;57018;50.278;19.134;2023-10-13T14:47:40;22.70;99.90
69747;DHT22;57018;50.278;19.134;2023-10-13T14:50:11;22.70;99.90
69747;DHT22;57018;50.278;19.134;2023-10-13T14:52:48;22.80;99.90
69747;DHT22;57018;50.278;19.134;2023-10-13T14:55:19;22.70;99.90
69747;DHT22;57018;50.278;19.134;2023-10-13T14:57:50;22.70;99.90
69747;DHT22;57018;50.278;19.134;2023-10-13T15:00:21;22.70;99.90
69747;DHT22;57018;50.278;19.134;2023-10-13T15:02:55;22.50;99.90
69747;DHT22;57018;50.278;19.134;2023-10-13T15:05:24;22.40;99.90
69747;DHT22;57018;50.278;19.134;2023-10-13T15:07:58;22.30;99.90
69747;DHT22;57018;50.278;19.134;2023-10-13T15:10:28;22.10;99.90
69747;DHT22;57018;50.278;19.134;2023-10-13T15:12:58;22.00;99.90
69747;DHT22;57018;50.278;19.134;2023-10-13T15:15:28;21.80;99.90
69747;DHT22;57018;50.278;19.134;2023-10-13T15:18:00;21.80;99.90
69747;DHT22;57018;50.278;19.134;2023-10-13T15:20:30;21.70;99.90
69747;DHT22;57018;50.278;19.134;2023-10-13T15:23:00;21.60;99.90
69747;DHT22;57018;50.278;19.134;2023-10-13T15:25:30;21.60;99.90
69747;DHT22;57018;50.278;19.134;2023-10-13T15:28:07;21.60;99.90
69747;DHT22;57018;50.278;19.134;2023-10-13T15:30:38;21.40;99.90
69747;DHT22;57018;50.278;19.134;2023-10-13T15:33:21;21.40;99.90
69747;DHT22;57018;50.278;19.134;2023-10-13T15:35:50;21.20;99.90
69747;DHT22;57018;50.278;19.134;2023-10-13T15:38:21;21.10;99.90
69747;DHT22;57018;50.278;19.134;2023-10-13T15:40:53;20.90;99.90
69747;DHT22;57018;50.278;19.134;2023-10-13T15:43:26;21.00;99.90
69747;DHT22;57018;50.278;19.134;2023-10-13T15:46:00;20.80;99.90
69747;DHT22;57018;50.278;19.134;2023-10-13T15:48:36;20.60;99.90
69747;DHT22;57018;50.278;19.134;2023-10-13T15:51:05;20.50;99.90
69747;DHT22;57018;50.278;19.134;2023-10-13T15:53:40;20.30;99.90
69747;DHT22;57018;50.278;19.134;2023-10-13T15:56:11;20.30;99.90
69747;DHT22;57018;50.278;19.134;2023-10-13T15:58:43;20.00;99.90
69747;DHT22;57018;50.278;19.134;2023-10-13T16:01:14;20.00;99.90
69747;DHT22;57018;50.278;19.134;2023-10-13T16:03:45;19.90;99.90
69747;DHT22;57018;50.278;19.134;2023-10-13T16:06:18;19.80;99.90
69747;DHT22;57018;50.278;19.134;2023-10-13T16:08:48;19.60;99.90
69747;DHT22;57018;50.278;19.134;2023-10-13T16:11:20;19.50;99.90
69747;DHT22;57018;50.278;19.134;2023-10-13T16:13:50;19.30;99.90
69747;DHT22;57018;50.278;19.134;2023-10-13T16:16:21;19.30;99.90